sensor_id;sensor_type;location;lat;lon;timestamp;pressure;altitude;pressure_sealevel;temperature;humidity
30554;BME280;17335;50.720;7.452;2023-01-29T00:00:34;100664.28;;;-5.01;100.00
30554;BME280;17335;50.720;7.452;2023-01-29T00:03:01;100649.47;;;-5.03;100.00
30554;BME280;17335;50.720;7.452;2023-01-29T00:05:27;100649.47;;;-5.02;100.00
30554;BME280;17335;50.720;7.452;2023-01-29T00:07:55;100648.66;;;-5.12;100.00
30554;BME280;17335;50.720;7.452;2023-01-29T00:10:23;100645.25;;;-5.18;100.00
30554;BME280;17335;50.720;7.452;2023-01-29T00:12:49;100644.31;;;-5.16;100.00
30554;BME280;17335;50.720;7.452;2023-01-29T00:15:17;100648.69;;;-5.15;100.00
30554;BME280;17335;50.720;7.452;2023-01-29T00:17:45;100645.22;;;-5.17;100.00
30554;BME280;17335;50.720;7.452;2023-01-29T00:20:12;100651.28;;;-5.12;100.00
30554;BME280;17335;50.720;7.452;2023-01-29T00:22:38;100641.66;;;-5.10;100.00
30554;BME280;17335;50.720;7.452;2023-01-29T00:25:05;100633.78;;;-5.08;100.00
30554;BME280;17335;50.720;7.452;2023-01-29T00:27:32;100636.41;;;-5.05;100.00
30554;BME280;17335;50.720;7.452;2023-01-29T00:29:58;100642.50;;;-5.07;100.00
30554;BME280;17335;50.720;7.452;2023-01-29T00:32:44;100632.94;;;-5.07;100.00
30554;BME280;17335;50.720;7.452;2023-01-29T00:35:11;100626.81;;;-5.09;100.00
30554;BME280;17335;50.720;7.452;2023-01-29T00:37:37;100619.06;;;-5.20;100.00
30554;BME280;17335;50.720;7.452;2023-01-29T00:40:04;100623.44;;;-5.19;100.00
30554;BME280;17335;50.720;7.452;2023-01-29T00:42:31;100619.94;;;-5.21;100.00
30554;BME280;17335;50.720;7.452;2023-01-29T00:45:16;100608.59;;;-5.20;100.00
30554;BME280;17335;50.720;7.452;2023-01-29T00:47:42;100602.44;;;-5.14;100.00
30554;BME280;17335;50.720;7.452;2023-01-29T00:50:10;100606.81;;;-5.15;100.00
30554;BME280;17335;50.720;7.452;2023-01-29T00:52:37;100605.97;;;-5.17;100.00
30554;BME280;17335;50.720;7.452;2023-01-29T00:55:07;100605.13;;;-5.23;100.00
30554;BME280;17335;50.720;7.452;2023-01-29T00:57:34;100597.31;;;-5.27;100.00
30554;BME280;17335;50.720;7.452;2023-01-29T01:00:01;100600.00;;;-5.31;100.00
30554;BME280;17335;50.720;7.452;2023-01-29T01:02:28;100594.78;;;-5.34;100.00
30554;BME280;17335;50.720;7.452;2023-01-29T01:05:15;100592.16;;;-5.36;100.00
30554;BME280;17335;50.720;7.452;2023-01-29T01:07:53;100590.41;;;-5.37;100.00
30554;BME280;17335;50.720;7.452;2023-01-29T01:10:27;100587.78;;;-5.32;100.00
30554;BME280;17335;50.720;7.452;2023-01-29T01:13:02;100592.13;;;-5.31;100.00
30554;BME280;17335;50.720;7.452;2023-01-29T01:15:37;100601.81;;;-5.41;100.00
30554;BME280;17335;50.720;7.452;2023-01-29T01:18:04;100597.47;;;-5.45;100.00
30554;BME280;17335;50.720;7.452;2023-01-29T01:20:33;100590.50;;;-5.43;100.00
30554;BME280;17335;50.720;7.452;2023-01-29T01:22:59;100584.38;;;-5.45;100.00
30554;BME280;17335;50.720;7.452;2023-01-29T01:25:26;100586.13;;;-5.46;100.00
30554;BME280;17335;50.720;7.452;2023-01-29T01:27:56;100579.97;;;-5.40;100.00
30554;BME280;17335;50.720;7.452;2023-01-29T01:30:23;100587.03;;;-5.47;100.00
30554;BME280;17335;50.720;7.452;2023-01-29T01:32:50;100592.31;;;-5.54;100.00
30554;BME280;17335;50.720;7.452;2023-01-29T01:35:17;100590.56;;;-5.55;100.00
30554;BME280;17335;50.720;7.452;2023-01-29T01:37:44;100598.41;;;-5.55;100.00
30554;BME280;17335;50.720;7.452;2023-01-29T01:40:15;100594.06;;;-5.55;100.00
30554;BME280;17335;50.720;7.452;2023-01-29T01:42:52;100591.44;;;-5.53;100.00
30554;BME280;17335;50.720;7.452;2023-01-29T01:53:13;100606.41;;;-5.71;100.00
30554;BME280;17335;50.720;7.452;2023-01-29T01:55:50;100602.88;;;-5.67;100.00
30554;BME280;17335;50.720;7.452;2023-01-29T01:58:44;100609.84;;;-5.66;100.00
30554;BME280;17335;50.720;7.452;2023-01-29T02:01:13;100603.84;;;-5.75;100.00
30554;BME280;17335;50.720;7.452;2023-01-29T02:03:45;100597.75;;;-5.79;100.00
30554;BME280;17335;50.720;7.452;2023-01-29T02:06:34;100585.53;;;-5.78;100.00
30554;BME280;17335;50.720;7.452;2023-01-29T02:09:34;100586.41;;;-5.79;100.00
30554;BME280;17335;50.720;7.452;2023-01-29T02:12:15;100595.13;;;-5.77;100.00
30554;BME280;17335;50.720;7.452;2023-01-29T02:14:42;100597.75;;;-5.76;100.00
30554;BME280;17335;50.720;7.452;2023-01-29T02:17:14;100586.38;;;-5.76;100.00
30554;BME280;17335;50.720;7.452;2023-01-29T02:25:09;100586.44;;;-5.81;100.00
30554;BME280;17335;50.720;7.452;2023-01-29T02:28:04;100586.47;;;-5.89;100.00
30554;BME280;17335;50.720;7.452;2023-01-29T02:30:43;100584.72;;;-5.90;100.00
30554;BME280;17335;50.720;7.452;2023-01-29T02:42:09;100576.88;;;-5.88;100.00
30554;BME280;17335;50.720;7.452;2023-01-29T02:44:41;100583.03;;;-5.94;100.00
30554;BME280;17335;50.720;7.452;2023-01-29T02:47:21;100583.00;;;-5.91;100.00
30554;BME280;17335;50.720;7.452;2023-01-29T02:50:31;100576.88;;;-5.87;100.00
30554;BME280;17335;50.720;7.452;2023-01-29T02:53:09;100578.63;;;-5.84;100.00
30554;BME280;17335;50.720;7.452;2023-01-29T02:58:14;100585.63;;;-5.89;100.00
30554;BME280;17335;50.720;7.452;2023-01-29T03:00:46;100596.94;;;-5.87;100.00
30554;BME280;17335;50.720;7.452;2023-01-29T03:03:23;100599.56;;;-5.87;100.00
30554;BME280;17335;50.720;7.452;2023-01-29T03:06:02;100596.94;;;-5.90;100.00
30554;BME280;17335;50.720;7.452;2023-01-29T03:08:39;100597.84;;;-5.93;100.00
30554;BME280;17335;50.720;7.452;2023-01-29T03:11:12;100589.19;;;-5.96;100.00
30554;BME280;17335;50.720;7.452;2023-01-29T03:16:30;100591.84;;;-6.06;100.00
30554;BME280;17335;50.720;7.452;2023-01-29T03:19:11;100593.59;;;-6.08;100.00
30554;BME280;17335;50.720;7.452;2023-01-29T03:21:58;100601.44;;;-6.05;100.00
30554;BME280;17335;50.720;7.452;2023-01-29T03:24:40;100600.59;;;-6.10;100.00
30554;BME280;17335;50.720;7.452;2023-01-29T03:27:32;100598.00;;;-6.10;100.00
30554;BME280;17335;50.720;7.452;2023-01-29T03:30:18;100601.53;;;-6.17;100.00
30554;BME280;17335;50.720;7.452;2023-01-29T03:33:07;100607.63;;;-6.21;100.00
30554;BME280;17335;50.720;7.452;2023-01-29T03:35:44;100618.06;;;-6.15;100.00
30554;BME280;17335;50.720;7.452;2023-01-29T03:38:14;100620.66;;;-6.13;100.00
30554;BME280;17335;50.720;7.452;2023-01-29T03:41:17;100635.44;;;-6.06;100.00
30554;BME280;17335;50.720;7.452;2023-01-29T03:43:49;100639.75;;;-6.04;100.00
30554;BME280;17335;50.720;7.452;2023-01-29T03:46:24;100631.91;;;-6.02;100.00
30554;BME280;17335;50.720;7.452;2023-01-29T03:51:36;100634.53;;;-6.04;100.00
30554;BME280;17335;50.720;7.452;2023-01-29T03:57:15;100631.03;;;-6.01;100.00
30554;BME280;17335;50.720;7.452;2023-01-29T04:00:01;100609.19;;;-5.94;100.00
30554;BME280;17335;50.720;7.452;2023-01-29T04:02:36;100617.03;;;-5.95;100.00
30554;BME280;17335;50.720;7.452;2023-01-29T04:05:08;100607.53;;;-6.09;100.00
30554;BME280;17335;50.720;7.452;2023-01-29T04:07:39;100599.69;;;-6.09;100.00
30554;BME280;17335;50.720;7.452;2023-01-29T04:10:26;100597.13;;;-6.12;100.00
30554;BME280;17335;50.720;7.452;2023-01-29T04:13:01;100592.78;;;-6.13;100.00
30554;BME280;17335;50.720;7.452;2023-01-29T04:15:33;100578.00;;;-6.18;100.00
30554;BME280;17335;50.720;7.452;2023-01-29T04:18:01;100571.00;;;-6.15;100.00
30554;BME280;17335;50.720;7.452;2023-01-29T04:20:28;100566.66;;;-6.16;100.00
30554;BME280;17335;50.720;7.452;2023-01-29T04:22:55;100567.56;;;-6.25;100.00
30554;BME280;17335;50.720;7.452;2023-01-29T04:25:24;100571.06;;;-6.26;100.00
30554;BME280;17335;50.720;7.452;2023-01-29T04:33:20;100580.59;;;-6.17;100.00
30554;BME280;17335;50.720;7.452;2023-01-29T04:38:45;100574.53;;;-6.20;100.00
30554;BME280;17335;50.720;7.452;2023-01-29T04:41:21;100582.41;;;-6.28;100.00
30554;BME280;17335;50.720;7.452;2023-01-29T04:46:54;100581.53;;;-6.26;100.00
30554;BME280;17335;50.720;7.452;2023-01-29T04:57:56;100568.28;;;-5.98;100.00
30554;BME280;17335;50.720;7.452;2023-01-29T05:00:30;100571.75;;;-5.97;100.00
30554;BME280;17335;50.720;7.452;2023-01-29T05:02:59;100566.53;;;-5.97;100.00
30554;BME280;17335;50.720;7.452;2023-01-29T05:05:27;100564.72;;;-5.95;100.00
30554;BME280;17335;50.720;7.452;2023-01-29T05:07:56;100572.63;;;-5.98;100.00
30554;BME280;17335;50.720;7.452;2023-01-29T05:10:23;100586.59;;;-5.98;100.00
30554;BME280;17335;50.720;7.452;2023-01-29T05:12:55;100577.81;;;-5.95;100.00
30554;BME280;17335;50.720;7.452;2023-01-29T05:15:36;100583.88;;;-5.90;100.00
30554;BME280;17335;50.720;7.452;2023-01-29T05:18:04;100577.72;;;-5.83;100.00
30554;BME280;17335;50.720;7.452;2023-01-29T05:20:37;100561.16;;;-5.84;100.00
30554;BME280;17335;50.720;7.452;2023-01-29T05:23:08;100569.00;;;-5.80;100.00
30554;BME280;17335;50.720;7.452;2023-01-29T05:25:36;100578.53;;;-5.75;100.00
30554;BME280;17335;50.720;7.452;2023-01-29T05:28:02;100569.75;;;-5.68;100.00
30554;BME280;17335;50.720;7.452;2023-01-29T05:30:31;100580.16;;;-5.57;100.00
30554;BME280;17335;50.720;7.452;2023-01-29T05:32:57;100564.41;;;-5.54;100.00
30554;BME280;17335;50.720;7.452;2023-01-29T05:35:24;100573.06;;;-5.47;100.00
30554;BME280;17335;50.720;7.452;2023-01-29T05:37:51;100568.66;;;-5.43;100.00
30554;BME280;17335;50.720;7.452;2023-01-29T05:40:17;100564.28;;;-5.40;100.00
30554;BME280;17335;50.720;7.452;2023-01-29T05:42:44;100548.56;;;-5.40;100.00
30554;BME280;17335;50.720;7.452;2023-01-29T05:45:11;100538.97;;;-5.36;100.00
30554;BME280;17335;50.720;7.452;2023-01-29T05:47:37;100535.41;;;-5.31;100.00
30554;BME280;17335;50.720;7.452;2023-01-29T05:50:04;100525.81;;;-5.32;100.00
30554;BME280;17335;50.720;7.452;2023-01-29T05:52:31;100523.22;;;-5.35;100.00
30554;BME280;17335;50.720;7.452;2023-01-29T05:54:57;100516.28;;;-5.37;100.00
30554;BME280;17335;50.720;7.452;2023-01-29T05:57:24;100518.03;;;-5.36;100.00
30554;BME280;17335;50.720;7.452;2023-01-29T05:59:50;100531.03;;;-5.29;100.00
30554;BME280;17335;50.720;7.452;2023-01-29T06:02:17;100532.69;;;-5.20;100.00
30554;BME280;17335;50.720;7.452;2023-01-29T06:04:43;100537.91;;;-5.18;100.00
30554;BME280;17335;50.720;7.452;2023-01-29T06:07:10;100544.81;;;-5.14;100.00
30554;BME280;17335;50.720;7.452;2023-01-29T06:09:36;100529.94;;;-5.11;100.00
30554;BME280;17335;50.720;7.452;2023-01-29T06:12:03;100520.28;;;-5.04;100.00
30554;BME280;17335;50.720;7.452;2023-01-29T06:14:31;100526.34;;;-5.00;100.00
30554;BME280;17335;50.720;7.452;2023-01-29T06:16:57;100538.53;;;-4.95;100.00
30554;BME280;17335;50.720;7.452;2023-01-29T06:19:24;100550.66;;;-4.87;100.00
30554;BME280;17335;50.720;7.452;2023-01-29T06:21:51;100557.38;;;-4.65;100.00
30554;BME280;17335;50.720;7.452;2023-01-29T06:24:17;100556.53;;;-4.67;100.00
30554;BME280;17335;50.720;7.452;2023-01-29T06:26:44;100553.13;;;-4.77;100.00
30554;BME280;17335;50.720;7.452;2023-01-29T06:29:10;100541.81;;;-4.77;100.00
30554;BME280;17335;50.720;7.452;2023-01-29T06:31:36;100533.94;;;-4.76;100.00
30554;BME280;17335;50.720;7.452;2023-01-29T06:34:08;100549.53;;;-4.68;100.00
30554;BME280;17335;50.720;7.452;2023-01-29T06:36:35;100555.56;;;-4.61;100.00
30554;BME280;17335;50.720;7.452;2023-01-29T06:39:02;100552.06;;;-4.60;100.00
30554;BME280;17335;50.720;7.452;2023-01-29T06:41:30;100554.69;;;-4.59;100.00
30554;BME280;17335;50.720;7.452;2023-01-29T06:43:56;100563.44;;;-4.61;100.00
30554;BME280;17335;50.720;7.452;2023-01-29T06:46:23;100558.22;;;-4.63;100.00
30554;BME280;17335;50.720;7.452;2023-01-29T06:48:49;100560.63;;;-4.46;100.00
30554;BME280;17335;50.720;7.452;2023-01-29T06:51:16;100570.94;;;-4.35;100.00
30554;BME280;17335;50.720;7.452;2023-01-29T06:53:43;100561.25;;;-4.30;100.00
30554;BME280;17335;50.720;7.452;2023-01-29T06:56:11;100570.09;;;-4.36;100.00
30554;BME280;17335;50.720;7.452;2023-01-29T06:58:38;100570.88;;;-4.27;100.00
30554;BME280;17335;50.720;7.452;2023-01-29T07:01:10;100576.06;;;-4.23;100.00
30554;BME280;17335;50.720;7.452;2023-01-29T07:03:50;100587.41;;;-4.22;100.00
30554;BME280;17335;50.720;7.452;2023-01-29T07:06:17;100598.69;;;-4.16;100.00
30554;BME280;17335;50.720;7.452;2023-01-29T07:08:44;100595.16;;;-4.15;100.00
30554;BME280;17335;50.720;7.452;2023-01-29T07:11:11;100604.75;;;-4.13;100.00
30554;BME280;17335;50.720;7.452;2023-01-29T07:13:38;100602.41;;;-4.35;100.00
30554;BME280;17335;50.720;7.452;2023-01-29T07:16:04;100601.56;;;-4.37;100.00
30554;BME280;17335;50.720;7.452;2023-01-29T07:18:32;100618.19;;;-4.38;100.00
30554;BME280;17335;50.720;7.452;2023-01-29T07:21:03;100597.06;;;-4.26;100.00
30554;BME280;17335;50.720;7.452;2023-01-29T07:23:29;100602.22;;;-4.21;100.00
30554;BME280;17335;50.720;7.452;2023-01-29T07:25:59;100597.91;;;-4.24;100.00
30554;BME280;17335;50.720;7.452;2023-01-29T07:28:26;100587.28;;;-4.15;100.00
30554;BME280;17335;50.720;7.452;2023-01-29T07:30:59;100583.00;;;-4.20;100.00
30554;BME280;17335;50.720;7.452;2023-01-29T07:33:25;100583.78;;;-4.13;100.00
30554;BME280;17335;50.720;7.452;2023-01-29T07:35:52;100575.88;;;-4.10;100.00
30554;BME280;17335;50.720;7.452;2023-01-29T07:38:19;100582.81;;;-4.06;100.00
30554;BME280;17335;50.720;7.452;2023-01-29T07:40:45;100582.69;;;-3.99;100.00
30554;BME280;17335;50.720;7.452;2023-01-29T07:43:12;100590.13;;;-3.68;100.00
30554;BME280;17335;50.720;7.452;2023-01-29T07:45:39;100607.78;;;-3.81;100.00
30554;BME280;17335;50.720;7.452;2023-01-29T07:48:08;100604.44;;;-3.92;100.00
30554;BME280;17335;50.720;7.452;2023-01-29T07:50:35;100604.69;;;-4.07;100.00
30554;BME280;17335;50.720;7.452;2023-01-29T07:53:02;100604.69;;;-4.07;100.00
30554;BME280;17335;50.720;7.452;2023-01-29T07:55:28;100606.34;;;-4.00;100.00
30554;BME280;17335;50.720;7.452;2023-01-29T07:57:59;100618.47;;;-3.93;100.00
30554;BME280;17335;50.720;7.452;2023-01-29T08:00:27;100613.06;;;-3.84;100.00
30554;BME280;17335;50.720;7.452;2023-01-29T08:03:00;100611.13;;;-3.69;100.00
30554;BME280;17335;50.720;7.452;2023-01-29T08:05:27;100593.38;;;-3.55;100.00
30554;BME280;17335;50.720;7.452;2023-01-29T08:07:54;100581.09;;;-3.53;100.00
30554;BME280;17335;50.720;7.452;2023-01-29T08:10:33;100578.91;;;-3.26;100.00
30554;BME280;17335;50.720;7.452;2023-01-29T08:13:00;100590.09;;;-3.16;100.00
30554;BME280;17335;50.720;7.452;2023-01-29T08:15:27;100591.81;;;-3.14;100.00
30554;BME280;17335;50.720;7.452;2023-01-29T08:17:54;100596.06;;;-3.07;100.00
30554;BME280;17335;50.720;7.452;2023-01-29T08:20:41;100590.72;;;-3.00;100.00
30554;BME280;17335;50.720;7.452;2023-01-29T08:23:12;100571.31;;;-2.93;100.00
30554;BME280;17335;50.720;7.452;2023-01-29T08:25:40;100576.56;;;-2.93;100.00
30554;BME280;17335;50.720;7.452;2023-01-29T08:28:06;100581.75;;;-2.90;100.00
30554;BME280;17335;50.720;7.452;2023-01-29T08:30:34;100583.41;;;-2.86;100.00
30554;BME280;17335;50.720;7.452;2023-01-29T08:33:03;100578.06;;;-2.80;100.00
30554;BME280;17335;50.720;7.452;2023-01-29T08:35:30;100581.47;;;-2.75;100.00
30554;BME280;17335;50.720;7.452;2023-01-29T08:37:58;100575.25;;;-2.71;100.00
30554;BME280;17335;50.720;7.452;2023-01-29T08:40:26;100579.44;;;-2.62;100.00
30554;BME280;17335;50.720;7.452;2023-01-29T08:43:01;100580.75;;;-2.41;100.00
30554;BME280;17335;50.720;7.452;2023-01-29T08:45:33;100588.53;;;-2.35;100.00
30554;BME280;17335;50.720;7.452;2023-01-29T08:48:00;100592.75;;;-2.28;100.00
30554;BME280;17335;50.720;7.452;2023-01-29T08:50:27;100590.03;;;-2.23;100.00
30554;BME280;17335;50.720;7.452;2023-01-29T08:52:57;100582.03;;;-2.18;100.00
30554;BME280;17335;50.720;7.452;2023-01-29T08:55:24;100583.66;;;-2.13;100.00
30554;BME280;17335;50.720;7.452;2023-01-29T08:57:51;100574.47;;;-1.95;100.00
30554;BME280;17335;50.720;7.452;2023-01-29T09:00:18;100586.34;;;-1.75;100.00
30554;BME280;17335;50.720;7.452;2023-01-29T09:02:44;100573.41;;;-1.86;100.00
30554;BME280;17335;50.720;7.452;2023-01-29T09:05:11;100579.75;;;-1.95;100.00
30554;BME280;17335;50.720;7.452;2023-01-29T09:07:37;100582.25;;;-1.89;100.00
30554;BME280;17335;50.720;7.452;2023-01-29T09:10:04;100580.41;;;-1.85;100.00
30554;BME280;17335;50.720;7.452;2023-01-29T09:12:31;100582.75;;;-1.73;100.00
30554;BME280;17335;50.720;7.452;2023-01-29T09:14:57;100578.66;;;-1.86;100.00
30554;BME280;17335;50.720;7.452;2023-01-29T09:17:24;100575.03;;;-1.80;100.00
30554;BME280;17335;50.720;7.452;2023-01-29T09:19:50;100564.34;;;-1.74;100.00
30554;BME280;17335;50.720;7.452;2023-01-29T09:22:19;100575.94;;;-1.81;100.00
30554;BME280;17335;50.720;7.452;2023-01-29T09:24:45;100570.47;;;-1.74;100.00
30554;BME280;17335;50.720;7.452;2023-01-29T09:27:12;100572.13;;;-1.68;100.00
30554;BME280;17335;50.720;7.452;2023-01-29T09:29:38;100574.00;;;-1.73;100.00
30554;BME280;17335;50.720;7.452;2023-01-29T09:32:05;100581.00;;;-1.74;100.00
30554;BME280;17335;50.720;7.452;2023-01-29T09:34:32;100577.38;;;-1.68;100.00
30554;BME280;17335;50.720;7.452;2023-01-29T09:36:59;100569.94;;;-1.51;100.00
30554;BME280;17335;50.720;7.452;2023-01-29T09:39:25;100568.78;;;-1.40;100.00
30554;BME280;17335;50.720;7.452;2023-01-29T09:47:11;100532.63;;;-1.34;100.00
30554;BME280;17335;50.720;7.452;2023-01-29T09:49:45;100532.16;;;-1.49;100.00
30554;BME280;17335;50.720;7.452;2023-01-29T09:52:55;100523.19;;;-1.42;100.00
30554;BME280;17335;50.720;7.452;2023-01-29T09:55:26;100525.94;;;-1.47;100.00
30554;BME280;17335;50.720;7.452;2023-01-29T09:57:58;100519.59;;;-1.40;100.00
30554;BME280;17335;50.720;7.452;2023-01-29T10:08:47;100509.25;;;-1.46;100.00
30554;BME280;17335;50.720;7.452;2023-01-29T10:14:39;100506.13;;;-1.29;100.00
30554;BME280;17335;50.720;7.452;2023-01-29T10:25:20;100500.38;;;-1.10;100.00
30554;BME280;17335;50.720;7.452;2023-01-29T10:27:50;100500.88;;;-0.96;100.00
30554;BME280;17335;50.720;7.452;2023-01-29T10:30:31;100499.78;;;-0.89;100.00
30554;BME280;17335;50.720;7.452;2023-01-29T10:33:02;100495.44;;;-0.91;100.00
30554;BME280;17335;50.720;7.452;2023-01-29T10:35:33;100492.69;;;-0.87;100.00
30554;BME280;17335;50.720;7.452;2023-01-29T10:38:19;100497.16;;;-0.89;100.00
30554;BME280;17335;50.720;7.452;2023-01-29T10:41:03;100494.47;;;-0.87;100.00
30554;BME280;17335;50.720;7.452;2023-01-29T10:43:50;100464.19;;;-0.74;100.00
30554;BME280;17335;50.720;7.452;2023-01-29T10:46:27;100462.06;;;-0.61;100.00
30554;BME280;17335;50.720;7.452;2023-01-29T10:52:15;100461.38;;;-0.40;100.00
30554;BME280;17335;50.720;7.452;2023-01-29T10:55:03;100457.53;;;-0.29;100.00
30554;BME280;17335;50.720;7.452;2023-01-29T10:57:47;100451.69;;;-0.11;100.00
30554;BME280;17335;50.720;7.452;2023-01-29T11:00:24;100452.69;;;0.12;100.00
30554;BME280;17335;50.720;7.452;2023-01-29T11:02:51;100447.22;;;0.18;100.00
30554;BME280;17335;50.720;7.452;2023-01-29T11:05:19;100452.88;;;0.32;100.00
30554;BME280;17335;50.720;7.452;2023-01-29T11:07:55;100450.06;;;0.39;100.00
30554;BME280;17335;50.720;7.452;2023-01-29T11:10:26;100442.84;;;0.44;100.00
30554;BME280;17335;50.720;7.452;2023-01-29T11:12:54;100431.66;;;0.35;100.00
30554;BME280;17335;50.720;7.452;2023-01-29T11:15:30;100420.28;;;0.33;100.00
30554;BME280;17335;50.720;7.452;2023-01-29T11:18:04;100421.16;;;0.34;100.00
30554;BME280;17335;50.720;7.452;2023-01-29T11:20:32;100418.56;;;0.32;100.00
30554;BME280;17335;50.720;7.452;2023-01-29T11:22:58;100416.63;;;0.37;100.00
30554;BME280;17335;50.720;7.452;2023-01-29T11:25:25;100409.53;;;0.40;100.00
30554;BME280;17335;50.720;7.452;2023-01-29T11:27:58;100404.50;;;0.57;100.00
30554;BME280;17335;50.720;7.452;2023-01-29T11:30:33;100405.25;;;0.61;100.00
30554;BME280;17335;50.720;7.452;2023-01-29T11:35:30;100394.72;;;0.59;100.00
30554;BME280;17335;50.720;7.452;2023-01-29T11:40:36;100377.25;;;0.79;100.00
30554;BME280;17335;50.720;7.452;2023-01-29T11:43:21;100375.56;;;0.78;100.00
30554;BME280;17335;50.720;7.452;2023-01-29T11:45:51;100377.69;;;0.68;100.00
30554;BME280;17335;50.720;7.452;2023-01-29T11:48:21;100363.75;;;0.63;100.00
30554;BME280;17335;50.720;7.452;2023-01-29T11:50:57;100377.25;;;0.55;100.00
30554;BME280;17335;50.720;7.452;2023-01-29T11:56:14;100364.44;;;0.44;100.00
30554;BME280;17335;50.720;7.452;2023-01-29T11:58:42;100363.47;;;0.47;100.00
30554;BME280;17335;50.720;7.452;2023-01-29T12:01:10;100357.50;;;0.65;100.00
30554;BME280;17335;50.720;7.452;2023-01-29T12:03:50;100345.31;;;0.61;100.00
30554;BME280;17335;50.720;7.452;2023-01-29T12:06:30;100340.78;;;0.65;100.00
30554;BME280;17335;50.720;7.452;2023-01-29T12:09:00;100326.63;;;0.89;100.00
30554;BME280;17335;50.720;7.452;2023-01-29T12:11:32;100311.69;;;0.88;100.00
30554;BME280;17335;50.720;7.452;2023-01-29T12:14:18;100312.56;;;0.89;100.00
30554;BME280;17335;50.720;7.452;2023-01-29T12:16:55;100318.09;;;1.05;100.00
30554;BME280;17335;50.720;7.452;2023-01-29T12:25:03;100296.72;;;1.33;100.00
30554;BME280;17335;50.720;7.452;2023-01-29T12:30:12;100296.75;;;1.54;100.00
30554;BME280;17335;50.720;7.452;2023-01-29T12:35:32;100295.41;;;1.43;100.00
30554;BME280;17335;50.720;7.452;2023-01-29T12:40:31;100289.13;;;1.46;100.00
30554;BME280;17335;50.720;7.452;2023-01-29T12:43:04;100285.38;;;1.52;100.00
30554;BME280;17335;50.720;7.452;2023-01-29T12:45:34;100278.03;;;1.58;100.00
30554;BME280;17335;50.720;7.452;2023-01-29T12:48:07;100274.63;;;1.55;100.00
30554;BME280;17335;50.720;7.452;2023-01-29T12:50:36;100276.38;;;1.56;100.00
30554;BME280;17335;50.720;7.452;2023-01-29T12:55:38;100259.22;;;1.64;100.00
30554;BME280;17335;50.720;7.452;2023-01-29T12:58:21;100243.75;;;1.55;100.00
30554;BME280;17335;50.720;7.452;2023-01-29T13:00:50;100244.38;;;1.62;100.00
30554;BME280;17335;50.720;7.452;2023-01-29T13:06:08;100243.28;;;1.66;100.00
30554;BME280;17335;50.720;7.452;2023-01-29T13:08:43;100231.91;;;1.64;100.00
30554;BME280;17335;50.720;7.452;2023-01-29T13:11:29;100235.09;;;1.72;100.00
30554;BME280;17335;50.720;7.452;2023-01-29T13:14:03;100226.16;;;1.75;100.00
30554;BME280;17335;50.720;7.452;2023-01-29T13:16:36;100222.91;;;1.47;100.00
30554;BME280;17335;50.720;7.452;2023-01-29T13:19:17;100226.44;;;1.48;100.00
30554;BME280;17335;50.720;7.452;2023-01-29T13:21:46;100227.47;;;1.44;100.00
30554;BME280;17335;50.720;7.452;2023-01-29T13:24:16;100214.72;;;1.54;100.00
30554;BME280;17335;50.720;7.452;2023-01-29T13:26:45;100225.47;;;1.49;100.00
30554;BME280;17335;50.720;7.452;2023-01-29T13:29:21;100222.72;;;1.52;100.00
30554;BME280;17335;50.720;7.452;2023-01-29T13:31:49;100218.00;;;1.38;100.00
30554;BME280;17335;50.720;7.452;2023-01-29T13:34:21;100212.25;;;1.49;100.00
30554;BME280;17335;50.720;7.452;2023-01-29T13:36:56;100207.97;;;1.46;100.00
30554;BME280;17335;50.720;7.452;2023-01-29T13:39:35;100204.84;;;1.37;100.00
30554;BME280;17335;50.720;7.452;2023-01-29T13:42:20;100213.25;;;1.46;100.00
30554;BME280;17335;50.720;7.452;2023-01-29T13:44:55;100194.88;;;1.43;100.00
30554;BME280;17335;50.720;7.452;2023-01-29T13:47:26;100198.19;;;1.48;100.00
30554;BME280;17335;50.720;7.452;2023-01-29T13:49:56;100197.22;;;1.49;100.00
30554;BME280;17335;50.720;7.452;2023-01-29T13:52:39;100189.22;;;1.51;100.00
30554;BME280;17335;50.720;7.452;2023-01-29T13:55:22;100187.06;;;1.40;100.00
30554;BME280;17335;50.720;7.452;2023-01-29T13:57:53;100178.31;;;1.38;100.00
30554;BME280;17335;50.720;7.452;2023-01-29T14:08:56;100148.50;;;1.14;100.00
30554;BME280;17335;50.720;7.452;2023-01-29T14:13:46;100141.88;;;1.45;100.00
30554;BME280;17335;50.720;7.452;2023-01-29T14:18:55;100135.44;;;1.50;100.00
30554;BME280;17335;50.720;7.452;2023-01-29T14:21:29;100136.31;;;1.51;100.00
30554;BME280;17335;50.720;7.452;2023-01-29T14:24:20;100123.88;;;1.53;100.00
30554;BME280;17335;50.720;7.452;2023-01-29T14:26:53;100135.19;;;1.57;100.00
30554;BME280;17335;50.720;7.452;2023-01-29T14:29:25;100127.75;;;1.65;100.00
30554;BME280;17335;50.720;7.452;2023-01-29T14:34:35;100132.19;;;1.64;100.00
30554;BME280;17335;50.720;7.452;2023-01-29T14:39:52;100124.19;;;1.66;100.00
30554;BME280;17335;50.720;7.452;2023-01-29T14:42:36;100130.50;;;1.63;100.00
30554;BME280;17335;50.720;7.452;2023-01-29T14:55:39;100140.09;;;1.25;100.00
30554;BME280;17335;50.720;7.452;2023-01-29T14:58:13;100144.84;;;1.17;100.00
30554;BME280;17335;50.720;7.452;2023-01-29T15:00:44;100153.19;;;1.07;100.00
30554;BME280;17335;50.720;7.452;2023-01-29T15:03:17;100154.63;;;1.15;100.00
30554;BME280;17335;50.720;7.452;2023-01-29T15:05:45;100158.06;;;1.17;100.00
30554;BME280;17335;50.720;7.452;2023-01-29T15:08:22;100160.66;;;1.18;100.00
30554;BME280;17335;50.720;7.452;2023-01-29T15:10:57;100156.25;;;1.19;100.00
30554;BME280;17335;50.720;7.452;2023-01-29T15:19:45;100165.69;;;1.04;100.00
30554;BME280;17335;50.720;7.452;2023-01-29T15:22:16;100168.91;;;0.90;100.00
30554;BME280;17335;50.720;7.452;2023-01-29T15:24:45;100169.19;;;0.82;100.00
30554;BME280;17335;50.720;7.452;2023-01-29T15:27:17;100170.19;;;0.80;100.00
30554;BME280;17335;50.720;7.452;2023-01-29T15:29:54;100170.69;;;0.67;100.00